Time;durP1;ratioP1;P1;durP2;ratioP2;P2;SDS_P1;SDS_P2;PMS_P1;PMS_P2;Temp;Humidity;BMP_temperature;BMP_pressure;BME280_temperature;BME280_humidity;BME280_pressure;Samples;Min_cycle;Max_cycle;Signal;HPM_P1;HPM_P2
2022/09/17 00:02:37;;;;;;;13.25;2.38;;;13.40;73.20;;;;;;9182736;19;20047;-62
2022/09/17 00:05:41;;;;;;;15.60;1.90;;;13.40;73.30;;;;;;9180227;19;20018;-66
2022/09/17 00:08:45;;;;;;;13.32;2.10;;;13.40;73.30;;;;;;9179066;19;20051;-63
2022/09/17 00:11:48;;;;;;;19.10;2.38;;;13.40;73.30;;;;;;9181567;19;20440;-62
2022/09/17 00:14:54;;;;;;;19.38;2.78;;;13.30;73.20;;;;;;9182230;19;20029;-62
2022/09/17 00:17:58;;;;;;;14.10;2.30;;;13.30;73.20;;;;;;9181506;19;20074;-63
2022/09/17 00:21:02;;;;;;;19.77;2.65;;;13.20;73.20;;;;;;9181616;19;20019;-62
2022/09/17 00:24:07;;;;;;;14.52;3.42;;;13.20;73.30;;;;;;9182111;19;20010;-62
2022/09/17 00:27:10;;;;;;;20.92;3.22;;;13.10;73.20;;;;;;9180989;19;20015;-62
2022/09/17 00:30:16;;;;;;;15.52;2.08;;;13.10;73.20;;;;;;9178882;19;20056;-64
2022/09/17 00:33:20;;;;;;;21.55;2.35;;;13.10;73.30;;;;;;9179017;19;20018;-63
2022/09/17 00:36:24;;;;;;;18.10;2.60;;;13.00;73.30;;;;;;9174485;19;20033;-62
2022/09/17 00:39:28;;;;;;;15.93;2.72;;;13.00;73.30;;;;;;9180791;19;20070;-62
2022/09/17 00:42:32;;;;;;;14.38;2.65;;;13.00;73.40;;;;;;9180108;19;20018;-63
2022/09/17 00:45:38;;;;;;;12.25;1.95;;;13.00;73.40;;;;;;9180719;19;20018;-62
2022/09/17 00:48:43;;;;;;;12.25;2.00;;;12.90;73.40;;;;;;9177969;19;20494;-62
2022/09/17 00:51:53;;;;;;;20.20;2.25;;;12.90;73.30;;;;;;9179903;19;20026;-62
2022/09/17 00:55:10;;;;;;;14.75;3.05;;;12.90;73.50;;;;;;9178425;19;20486;-61
2022/09/17 00:58:17;;;;;;;17.65;2.13;;;12.80;73.40;;;;;;9180384;19;20104;-62
2022/09/17 01:01:23;;;;;;;12.98;2.20;;;12.80;73.40;;;;;;9179579;19;20018;-64
2022/09/17 01:04:28;;;;;;;15.95;2.33;;;12.80;73.40;;;;;;9180303;19;20024;-64
2022/09/17 01:07:57;;;;;;;17.63;2.72;;;12.80;73.40;;;;;;9178537;19;20082;-62
2022/09/17 01:11:24;;;;;;;17.75;3.65;;;12.80;73.60;;;;;;9177550;19;20421;-61
2022/09/17 01:14:39;;;;;;;13.02;2.20;;;12.70;73.50;;;;;;9179237;19;20039;-61
2022/09/17 01:17:57;;;;;;;13.93;2.35;;;12.70;73.50;;;;;;9179564;19;20160;-62
2022/09/17 01:21:28;;;;;;;20.27;2.55;;;12.70;73.50;;;;;;9178981;19;20024;-62
2022/09/17 01:25:01;;;;;;;19.42;2.50;;;12.70;73.50;;;;;;9179220;19;20014;-64
2022/09/17 01:28:32;;;;;;;25.75;3.00;;;12.60;73.60;;;;;;9178566;19;20011;-64
2022/09/17 01:31:44;;;;;;;20.58;2.78;;;12.60;73.60;;;;;;9174674;19;20560;-64
2022/09/17 01:34:56;;;;;;;17.80;2.47;;;12.60;73.50;;;;;;9174037;19;20014;-65
2022/09/17 01:38:06;;;;;;;15.70;2.80;;;12.60;73.60;;;;;;9178252;19;20359;-61
2022/09/17 01:41:17;;;;;;;14.45;2.10;;;12.60;73.60;;;;;;9179250;19;20050;-62
2022/09/17 01:44:25;;;;;;;13.73;2.88;;;12.60;73.70;;;;;;9179265;19;20562;-61
2022/09/17 01:47:36;;;;;;;18.25;2.63;;;12.50;73.60;;;;;;9178075;19;20019;-63
2022/09/17 01:50:45;;;;;;;20.90;2.67;;;12.50;73.60;;;;;;9178437;19;20044;-61
2022/09/17 01:53:54;;;;;;;15.27;2.38;;;12.50;73.60;;;;;;9179137;19;20475;-61
2022/09/17 01:57:02;;;;;;;19.00;2.80;;;12.50;73.60;;;;;;9177517;19;20086;-63
2022/09/17 02:00:10;;;;;;;26.75;2.97;;;12.50;73.60;;;;;;9178654;19;20033;-61
2022/09/17 02:03:22;;;;;;;16.38;2.13;;;12.50;73.60;;;;;;9178105;19;20467;-63
2022/09/17 02:06:31;;;;;;;16.25;1.90;;;12.40;73.70;;;;;;9177172;19;20026;-62
2022/09/17 02:09:41;;;;;;;22.60;3.05;;;12.40;73.60;;;;;;9174364;19;20577;-63
2022/09/17 02:12:50;;;;;;;21.17;3.25;;;12.40;73.70;;;;;;9178009;19;20867;-62
2022/09/17 02:15:58;;;;;;;16.13;3.08;;;12.40;73.70;;;;;;9176893;19;20074;-63
2022/09/17 02:19:08;;;;;;;19.08;2.60;;;12.40;73.70;;;;;;9177090;19;20018;-62
2022/09/17 02:22:21;;;;;;;25.52;3.65;;;12.40;73.80;;;;;;9176173;19;20090;-62
2022/09/17 02:25:29;;;;;;;21.33;2.30;;;12.40;73.80;;;;;;9177257;19;20093;-61
2022/09/17 02:28:42;;;;;;;17.17;3.45;;;12.30;73.70;;;;;;9173227;19;20110;-63
2022/09/17 02:31:46;;;;;;;18.45;2.40;;;12.30;73.80;;;;;;9177317;19;20011;-62
2022/09/17 02:34:52;;;;;;;20.40;2.47;;;12.30;73.70;;;;;;9170253;19;20017;-63
2022/09/17 02:37:55;;;;;;;10.50;2.28;;;12.30;73.70;;;;;;9177176;19;20018;-62
2022/09/17 02:41:07;;;;;;;16.48;2.17;;;12.30;73.80;;;;;;9175408;19;20025;-61
2022/09/17 02:44:22;;;;;;;15.15;1.98;;;12.30;73.90;;;;;;9176546;19;20391;-62
2022/09/17 02:47:43;;;;;;;15.18;1.83;;;12.30;73.90;;;;;;9175138;19;20025;-63
2022/09/17 02:51:07;;;;;;;12.50;1.80;;;12.20;73.80;;;;;;9175922;19;20082;-62
2022/09/17 02:54:19;;;;;;;9.88;1.52;;;12.20;73.90;;;;;;9176029;19;20026;-62
2022/09/17 02:57:28;;;;;;;14.18;2.58;;;12.20;73.80;;;;;;9175809;19;20025;-62
2022/09/17 03:00:32;;;;;;;11.93;2.38;;;12.20;73.90;;;;;;9175510;19;20022;-64
2022/09/17 03:03:40;;;;;;;11.70;1.92;;;12.20;73.90;;;;;;9176657;19;20018;-64
2022/09/17 03:06:47;;;;;;;11.50;2.15;;;12.20;73.90;;;;;;9173451;19;20536;-63
2022/09/17 03:09:51;;;;;;;25.00;2.83;;;12.20;73.90;;;;;;9171623;19;20036;-62
2022/09/17 03:12:55;;;;;;;8.10;2.03;;;12.10;73.80;;;;;;9175584;19;20019;-61
2022/09/17 03:15:59;;;;;;;13.57;2.60;;;12.20;73.90;;;;;;9175252;19;20433;-63
2022/09/17 03:19:03;;;;;;;14.50;1.63;;;12.20;73.90;;;;;;9174934;19;20404;-60
2022/09/17 03:22:08;;;;;;;15.65;2.28;;;12.20;73.90;;;;;;9173875;19;20022;-61
2022/09/17 03:25:12;;;;;;;20.95;2.25;;;12.10;73.80;;;;;;9173872;19;20014;-61
2022/09/17 03:28:16;;;;;;;18.85;2.20;;;12.10;74.00;;;;;;9173225;19;20013;-62
2022/09/17 03:31:20;;;;;;;11.20;2.65;;;12.10;73.90;;;;;;9173735;19;20038;-62
2022/09/17 03:34:24;;;;;;;10.80;1.67;;;12.10;73.90;;;;;;9169021;19;20046;-62
2022/09/17 03:37:30;;;;;;;;;;;12.10;73.90;;;;;;9182048;19;20420;-61
2022/09/17 03:40:36;;;;;;;11.02;1.88;;;12.10;73.80;;;;;;9182310;19;19923;-61
2022/09/17 03:43:40;;;;;;;20.42;2.33;;;12.10;73.70;;;;;;9183213;19;20029;-63
2022/09/17 03:46:44;;;;;;;13.02;1.65;;;12.00;73.70;;;;;;9182119;19;20014;-62
2022/09/17 03:49:47;;;;;;;9.75;2.47;;;12.00;73.70;;;;;;9179561;19;20033;-63
2022/09/17 03:52:53;;;;;;;11.75;2.13;;;12.00;73.80;;;;;;9181752;19;20041;-63
2022/09/17 03:55:59;;;;;;;10.07;1.50;;;12.00;73.80;;;;;;9182280;19;20043;-61
2022/09/17 03:59:03;;;;;;;11.82;1.75;;;12.00;73.80;;;;;;9181764;19;20412;-62
2022/09/17 04:02:07;;;;;;;12.68;2.03;;;12.00;73.90;;;;;;9180354;19;20520;-62
2022/09/17 04:05:11;;;;;;;;;;;11.90;73.80;;;;;;9183032;19;20031;-62
2022/09/17 04:08:16;;;;;;;17.03;2.53;;;11.90;73.80;;;;;;9180851;19;20320;-63
2022/09/17 04:11:20;;;;;;;11.50;2.13;;;11.90;73.80;;;;;;9181590;19;20601;-64
2022/09/17 04:14:24;;;;;;;10.80;2.15;;;11.90;73.80;;;;;;9181646;19;20019;-62
2022/09/17 04:17:29;;;;;;;10.88;1.73;;;11.90;73.80;;;;;;9181177;19;20143;-63
2022/09/17 04:20:32;;;;;;;9.57;1.80;;;11.90;73.90;;;;;;9177663;19;20464;-61
2022/09/17 04:23:38;;;;;;;10.55;1.58;;;11.90;73.90;;;;;;9180888;19;20029;-60
2022/09/17 04:26:41;;;;;;;6.82;1.55;;;11.90;73.90;;;;;;9179216;19;20042;-61
2022/09/17 04:29:45;;;;;;;14.73;2.38;;;11.90;73.90;;;;;;9178737;19;20037;-61
2022/09/17 04:32:49;;;;;;;9.98;1.48;;;11.80;73.90;;;;;;9181505;19;20014;-61
2022/09/17 04:35:52;;;;;;;14.70;2.13;;;11.80;73.90;;;;;;9176362;19;20025;-63
2022/09/17 04:38:58;;;;;;;8.43;1.77;;;11.80;73.90;;;;;;9180896;19;20082;-62
2022/09/17 04:42:02;;;;;;;10.85;1.75;;;11.80;74.00;;;;;;9181401;19;20026;-63
2022/09/17 04:45:06;;;;;;;13.27;2.33;;;11.80;74.00;;;;;;9180160;19;20090;-61
2022/09/17 04:48:10;;;;;;;6.55;1.30;;;11.80;74.00;;;;;;9179129;19;20389;-62
2022/09/17 04:51:14;;;;;;;9.30;1.50;;;11.80;74.00;;;;;;9180332;19;20019;-61
2022/09/17 04:54:19;;;;;;;12.07;2.00;;;11.80;74.10;;;;;;9181351;19;20086;-64
2022/09/17 04:57:24;;;;;;;13.98;1.98;;;11.80;74.00;;;;;;9181884;19;20508;-62
2022/09/17 05:00:28;;;;;;;20.73;2.85;;;11.80;74.00;;;;;;9181853;19;20515;-62
2022/09/17 05:03:31;;;;;;;9.88;1.67;;;11.80;74.10;;;;;;9180626;19;20015;-61
2022/09/17 05:06:35;;;;;;;15.63;2.78;;;11.80;74.00;;;;;;9180227;19;20079;-62
2022/09/17 05:09:40;;;;;;;9.15;1.80;;;11.80;74.00;;;;;;9178702;19;20026;-62
2022/09/17 05:12:49;;;;;;;11.48;2.05;;;11.80;74.10;;;;;;9178202;19;20091;-62
2022/09/17 05:15:55;;;;;;;15.02;1.83;;;11.80;74.10;;;;;;9167949;19;20721;-62
2022/09/17 05:18:58;;;;;;;15.65;1.95;;;11.80;74.10;;;;;;9175173;19;20367;-63
2022/09/17 05:22:02;;;;;;;8.38;1.70;;;11.80;74.10;;;;;;9173606;19;20944;-62
2022/09/17 05:25:09;;;;;;;10.75;1.30;;;11.70;74.10;;;;;;9172370;19;20397;-63
2022/09/17 05:28:12;;;;;;;8.48;1.45;;;11.70;74.10;;;;;;9173181;19;20025;-61
2022/09/17 05:31:16;;;;;;;11.30;1.52;;;11.70;74.10;;;;;;9173643;19;20018;-63
2022/09/17 05:34:20;;;;;;;6.13;1.60;;;11.70;74.10;;;;;;9176041;19;20011;-62
2022/09/17 05:37:23;;;;;;;13.88;1.90;;;11.70;74.10;;;;;;9181564;19;20010;-61
2022/09/17 05:40:29;;;;;;;8.98;2.10;;;11.70;74.10;;;;;;9180894;19;20078;-62
2022/09/17 05:43:33;;;;;;;7.95;1.88;;;11.70;74.20;;;;;;9181432;19;20045;-62
2022/09/17 05:46:37;;;;;;;7.70;1.38;;;11.70;74.10;;;;;;9180445;19;20822;-62
2022/09/17 05:49:41;;;;;;;10.02;1.50;;;11.70;74.10;;;;;;9177325;19;20489;-62
2022/09/17 05:52:44;;;;;;;10.02;2.05;;;11.70;74.20;;;;;;9180844;19;20027;-61
2022/09/17 05:55:50;;;;;;;8.27;1.35;;;11.70;74.20;;;;;;9180022;19;20107;-63
2022/09/17 05:58:56;;;;;;;13.18;1.92;;;11.60;74.20;;;;;;9175524;19;20014;-63
2022/09/17 06:02:00;;;;;;;11.93;2.20;;;11.70;74.30;;;;;;9180209;19;20018;-61
2022/09/17 06:05:04;;;;;;;11.15;1.45;;;11.70;74.40;;;;;;9179413;19;20023;-61
2022/09/17 06:08:08;;;;;;;8.95;1.45;;;11.70;74.30;;;;;;9178481;19;20036;-61
2022/09/17 06:11:14;;;;;;;13.10;1.80;;;11.70;74.30;;;;;;9179198;19;20086;-63
2022/09/17 06:14:17;;;;;;;14.20;1.77;;;11.70;74.30;;;;;;9179555;19;20018;-62
2022/09/17 06:17:21;;;;;;;16.75;2.33;;;11.70;74.30;;;;;;9179229;19;20019;-62
2022/09/17 06:20:25;;;;;;;13.07;1.75;;;11.70;74.30;;;;;;9176288;19;20503;-62
2022/09/17 06:23:33;;;;;;;5.03;1.80;;;11.70;74.30;;;;;;9179059;19;20014;-63
2022/09/17 06:26:39;;;;;;;8.60;1.50;;;11.70;74.90;;;;;;9178787;19;20022;-64
2022/09/17 06:29:43;;;;;;;17.58;2.78;;;11.80;74.40;;;;;;9178749;19;20018;-62
2022/09/17 06:32:46;;;;;;;16.90;1.98;;;11.80;74.40;;;;;;9178425;19;20037;-62
2022/09/17 06:35:58;;;;;;;12.35;1.60;;;11.80;74.40;;;;;;9174032;19;20356;-61
2022/09/17 06:39:02;;;;;;;10.68;2.38;;;11.80;74.40;;;;;;9176822;19;20082;-61
2022/09/17 06:42:08;;;;;;;20.25;2.20;;;11.80;74.40;;;;;;9178682;19;20007;-61
2022/09/17 06:45:12;;;;;;;7.95;1.63;;;11.90;74.50;;;;;;9178101;19;20481;-60
2022/09/17 06:48:20;;;;;;;10.27;1.83;;;11.90;74.40;;;;;;9178214;19;20475;-62
2022/09/17 06:51:23;;;;;;;11.05;1.95;;;12.00;74.50;;;;;;9178193;19;20467;-60
2022/09/17 06:54:27;;;;;;;15.25;2.40;;;12.00;74.40;;;;;;9176830;19;20478;-61
2022/09/17 06:57:33;;;;;;;10.07;1.67;;;12.00;74.40;;;;;;9178590;19;20070;-60
2022/09/17 07:00:36;;;;;;;16.55;1.75;;;12.10;74.50;;;;;;9172117;19;20021;-61
2022/09/17 07:03:41;;;;;;;;;;;12.10;74.40;;;;;;9176630;19;20447;-61
2022/09/17 07:06:45;;;;;;;;;;;12.10;74.30;;;;;;9177829;19;19919;-60
2022/09/17 07:09:49;;;;;;;10.53;1.80;;;12.20;74.20;;;;;;9178392;19;19929;-65
2022/09/17 07:12:54;;;;;;;14.55;1.92;;;12.20;74.20;;;;;;9185273;19;20562;-61
2022/09/17 07:15:59;;;;;;;10.27;1.85;;;12.20;74.20;;;;;;9186313;19;20006;-64
2022/09/17 07:19:04;;;;;;;11.25;1.98;;;12.30;74.30;;;;;;9184534;19;20018;-60
2022/09/17 07:22:08;;;;;;;5.72;1.38;;;12.30;74.30;;;;;;9184676;19;20066;-63
2022/09/17 07:25:12;;;;;;;9.27;1.90;;;12.30;74.30;;;;;;9182665;19;20019;-63
2022/09/17 07:28:18;;;;;;;8.90;1.73;;;12.40;74.30;;;;;;9183012;19;20113;-61
2022/09/17 07:31:22;;;;;;;11.30;2.03;;;12.50;74.40;;;;;;9181859;19;20014;-63
2022/09/17 07:34:26;;;;;;;10.02;2.78;;;12.60;74.40;;;;;;9175396;19;20019;-60
2022/09/17 07:37:30;;;;;;;12.40;1.67;;;12.70;74.30;;;;;;9180237;19;20355;-63
2022/09/17 07:40:34;;;;;;;12.25;1.67;;;12.70;74.20;;;;;;9178115;19;20014;-61
2022/09/17 07:43:40;;;;;;;9.02;1.77;;;12.80;74.30;;;;;;9180782;19;20024;-61
2022/09/17 07:46:44;;;;;;;11.27;1.48;;;12.80;74.20;;;;;;9180379;19;20530;-62
2022/09/17 07:49:48;;;;;;;12.20;1.38;;;13.00;74.20;;;;;;9180447;19;20010;-61
2022/09/17 07:52:51;;;;;;;13.80;1.67;;;13.00;74.10;;;;;;9177900;19;20046;-65
2022/09/17 07:55:56;;;;;;;9.85;1.60;;;13.10;74.10;;;;;;9178404;19;20022;-63
2022/09/17 07:59:03;;;;;;;12.15;1.10;;;13.20;74.10;;;;;;9174902;19;20028;-62
2022/09/17 08:02:13;;;;;;;11.50;1.80;;;13.40;74.10;;;;;;9173377;19;20834;-62
2022/09/17 08:05:17;;;;;;;5.22;1.10;;;13.50;74.00;;;;;;9170561;19;20027;-65
2022/09/17 08:08:21;;;;;;;7.93;1.15;;;13.60;73.80;;;;;;9169614;19;20436;-66
2022/09/17 08:11:28;;;;;;;9.50;1.92;;;13.70;73.70;;;;;;9173367;19;20029;-63
2022/09/17 08:14:54;;;;;;;7.90;1.48;;;13.80;73.60;;;;;;9174768;19;20022;-63
2022/09/17 08:17:57;;;;;;;11.77;1.50;;;14.00;73.50;;;;;;9182043;19;20337;-64
2022/09/17 08:21:03;;;;;;;8.38;1.25;;;14.10;73.40;;;;;;9177542;19;20028;-63
2022/09/17 08:24:07;;;;;;;8.95;1.15;;;14.30;73.30;;;;;;9177936;19;20484;-64
2022/09/17 08:27:11;;;;;;;9.10;0.88;;;14.50;73.20;;;;;;9180635;19;20499;-63
2022/09/17 08:30:16;;;;;;;11.52;1.67;;;14.70;73.10;;;;;;9182458;19;20017;-63
2022/09/17 08:33:20;;;;;;;6.82;1.20;;;14.90;72.90;;;;;;9182450;19;20019;-63
2022/09/17 08:36:25;;;;;;;12.07;1.30;;;15.10;72.70;;;;;;9174146;19;20018;-63
2022/09/17 08:39:28;;;;;;;5.00;1.15;;;15.30;72.50;;;;;;9177769;19;20011;-63
2022/09/17 08:42:38;;;;;;;7.05;1.15;;;15.50;72.30;;;;;;9177535;19;20040;-66
2022/09/17 08:45:44;;;;;;;3.42;0.80;;;15.60;72.10;;;;;;9174070;19;21007;-64
2022/09/17 08:48:53;;;;;;;5.47;0.70;;;15.80;71.80;;;;;;9175602;19;20114;-62
2022/09/17 08:52:27;;;;;;;5.82;0.88;;;16.00;71.50;;;;;;9175337;19;20022;-63
2022/09/17 08:55:38;;;;;;;2.00;0.43;;;16.20;71.10;;;;;;9170969;19;20517;-62
2022/09/17 08:59:01;;;;;;;6.30;0.98;;;16.30;71.00;;;;;;9174357;19;20620;-66
2022/09/17 09:02:17;;;;;;;9.45;1.02;;;16.50;70.40;;;;;;9170844;19;20026;-63
2022/09/17 09:05:24;;;;;;;4.60;1.30;;;16.50;70.10;;;;;;9173715;19;20042;-63
2022/09/17 09:08:32;;;;;;;3.13;0.88;;;16.60;70.10;;;;;;9173168;19;20511;-64
2022/09/17 09:11:36;;;;;;;4.20;1.10;;;16.70;69.90;;;;;;9174621;19;20760;-64
2022/09/17 09:14:48;;;;;;;5.70;1.38;;;16.70;69.80;;;;;;9176424;19;20011;-63
2022/09/17 09:17:54;;;;;;;4.05;0.98;;;16.80;69.60;;;;;;9175682;19;20539;-64
2022/09/17 09:21:08;;;;;;;4.82;0.60;;;16.80;69.40;;;;;;9171720;19;20017;-64
2022/09/17 09:24:23;;;;;;;5.38;1.10;;;16.90;69.20;;;;;;9174273;19;20917;-64
2022/09/17 09:27:29;;;;;;;6.78;0.90;;;16.90;69.00;;;;;;9175239;19;20019;-64
2022/09/17 09:30:46;;;;;;;3.72;0.85;;;17.00;69.10;;;;;;9172586;19;20041;-64
2022/09/17 09:33:52;;;;;;;4.93;0.93;;;17.00;69.00;;;;;;9170579;19;20015;-65
2022/09/17 09:37:03;;;;;;;3.63;1.10;;;17.20;69.00;;;;;;9169931;19;20091;-64
2022/09/17 09:40:23;;;;;;;5.40;0.82;;;17.20;68.80;;;;;;9172216;19;20497;-65
2022/09/17 09:43:35;;;;;;;3.88;0.80;;;17.30;68.50;;;;;;9173421;19;20723;-62
2022/09/17 09:47:14;;;;;;;8.05;2.08;;;17.30;68.50;;;;;;9176703;19;20014;-63
2022/09/17 09:50:45;;;;;;;8.38;1.23;;;17.40;68.30;;;;;;9179431;19;20029;-65
2022/09/17 09:54:27;;;;;;;3.72;0.75;;;17.50;68.10;;;;;;9180198;19;20026;-64
2022/09/17 09:57:39;;;;;;;4.07;0.70;;;17.60;68.00;;;;;;9178639;19;20501;-64
2022/09/17 10:00:44;;;;;;;7.63;1.40;;;17.70;68.00;;;;;;9177778;19;20081;-64
2022/09/17 10:03:50;;;;;;;3.90;1.10;;;17.80;67.80;;;;;;9181027;19;20085;-64
2022/09/17 10:07:02;;;;;;;1.95;0.65;;;17.90;67.70;;;;;;9180934;19;20037;-63
2022/09/17 10:10:11;;;;;;;5.35;0.80;;;17.80;67.40;;;;;;9172544;19;20055;-64
2022/09/17 10:13:16;;;;;;;3.78;0.70;;;17.90;67.50;;;;;;9175090;19;20502;-63
2022/09/17 10:16:23;;;;;;;7.57;1.17;;;17.80;67.40;;;;;;9177084;19;20479;-65
2022/09/17 10:19:27;;;;;;;4.68;0.93;;;17.70;67.20;;;;;;9174805;19;20029;-65
2022/09/17 10:22:35;;;;;;;6.00;0.80;;;17.70;67.30;;;;;;9177402;19;20010;-64
2022/09/17 10:25:44;;;;;;;4.57;1.33;;;17.60;67.30;;;;;;9179996;19;20458;-64
2022/09/17 10:28:51;;;;;;;5.45;1.20;;;17.50;67.30;;;;;;9180003;19;20014;-64
2022/09/17 10:31:56;;;;;;;5.70;0.57;;;17.40;67.40;;;;;;9180010;19;20019;-62
2022/09/17 10:35:04;;;;;;;2.67;0.70;;;17.30;67.50;;;;;;9175584;19;20003;-63
2022/09/17 10:38:28;;;;;;;7.55;1.35;;;17.30;67.60;;;;;;9180957;19;20371;-63
2022/09/17 10:41:32;;;;;;;10.82;1.10;;;17.30;67.40;;;;;;9179407;19;20442;-63
2022/09/17 10:44:37;;;;;;;4.22;0.80;;;17.40;67.70;;;;;;9183079;19;20043;-64
2022/09/17 10:47:43;;;;;;;8.30;0.50;;;17.40;67.60;;;;;;9186426;19;20049;-64
2022/09/17 10:50:50;;;;;;;5.38;0.90;;;17.60;67.50;;;;;;9186726;19;20932;-63
2022/09/17 10:54:39;;;;;;;3.40;0.75;;;17.70;67.30;;;;;;9182672;19;20075;-62
2022/09/17 10:58:03;;;;;;;5.53;0.55;;;17.90;66.90;;;;;;9171258;19;20082;-63
2022/09/17 11:01:16;;;;;;;5.53;0.88;;;18.10;66.90;;;;;;9176747;19;20025;-63
2022/09/17 11:04:31;;;;;;;4.47;1.50;;;18.20;66.90;;;;;;9179442;19;20026;-63
2022/09/17 11:07:43;;;;;;;3.42;1.10;;;18.40;66.60;;;;;;9179577;19;20014;-64
2022/09/17 11:10:54;;;;;;;5.03;1.17;;;18.60;66.40;;;;;;9178485;19;20070;-64
2022/09/17 11:14:11;;;;;;;10.95;1.20;;;18.80;66.10;;;;;;9178373;19;20018;-64
2022/09/17 11:17:28;;;;;;;9.48;1.05;;;18.90;65.80;;;;;;9178628;19;20331;-66
2022/09/17 11:20:49;;;;;;;6.75;0.93;;;19.00;65.40;;;;;;9176644;19;20019;-69
2022/09/17 11:24:21;;;;;;;14.68;2.28;;;19.10;65.20;;;;;;9178400;19;20097;-66
2022/09/17 11:27:53;;;;;;;7.47;1.90;;;19.00;65.30;;;;;;9176731;19;20087;-63
2022/09/17 11:31:16;;;;;;;9.05;1.45;;;18.90;65.40;;;;;;9178794;19;20489;-64
2022/09/17 11:34:34;;;;;;;3.35;1.35;;;18.70;65.60;;;;;;9174000;19;20113;-63
2022/09/17 11:37:47;;;;;;;2.15;0.80;;;18.60;65.80;;;;;;9178646;19;20055;-64
2022/09/17 11:40:59;;;;;;;4.43;1.33;;;18.40;65.90;;;;;;9175676;19;20021;-64
2022/09/17 11:44:09;;;;;;;8.55;1.10;;;18.10;66.10;;;;;;9178085;19;20356;-64
2022/09/17 11:47:19;;;;;;;3.10;0.60;;;18.00;66.40;;;;;;9178035;19;20482;-64
2022/09/17 11:50:29;;;;;;;7.45;2.28;;;17.80;66.70;;;;;;9177013;19;20696;-65
2022/09/17 11:53:36;;;;;;;4.93;1.45;;;17.60;67.00;;;;;;9177904;19;20070;-64
2022/09/17 11:56:44;;;;;;;4.30;1.08;;;17.50;67.40;;;;;;9174572;19;20015;-64
2022/09/17 11:59:53;;;;;;;5.47;0.95;;;17.40;67.70;;;;;;9177018;19;20021;-64
2022/09/17 12:03:04;;;;;;;5.80;1.45;;;17.40;68.00;;;;;;9177258;19;20010;-65
2022/09/17 12:06:12;;;;;;;5.05;0.90;;;17.40;68.30;;;;;;9178316;19;20025;-63
2022/09/17 12:09:21;;;;;;;3.83;1.25;;;17.40;68.40;;;;;;9175395;19;20015;-63
2022/09/17 12:12:27;;;;;;;9.75;1.40;;;17.40;68.40;;;;;;9178410;19;20062;-62
2022/09/17 12:15:53;;;;;;;13.23;1.30;;;17.50;68.50;;;;;;9177371;19;20018;-64
2022/09/17 12:19:08;;;;;;;2.55;0.52;;;17.50;68.50;;;;;;9177344;19;20546;-65
2022/09/17 12:22:14;;;;;;;6.13;1.00;;;17.50;68.50;;;;;;9176669;19;20400;-62
2022/09/17 12:25:18;;;;;;;4.60;1.02;;;17.50;68.50;;;;;;9177719;19;20594;-64
2022/09/17 12:28:27;;;;;;;5.40;0.88;;;17.60;68.30;;;;;;9177430;19;20363;-64
2022/09/17 12:31:37;;;;;;;6.95;1.30;;;17.60;68.30;;;;;;9176410;19;20028;-63
2022/09/17 12:34:55;;;;;;;4.03;0.77;;;17.60;68.30;;;;;;9174476;19;20018;-64
2022/09/17 12:38:11;;;;;;;2.75;0.55;;;17.60;68.10;;;;;;9124301;19;20018;-64
2022/09/17 12:41:20;;;;;;;5.05;1.08;;;17.70;68.00;;;;;;9174136;19;20019;-64
2022/09/17 12:44:51;;;;;;;4.05;0.70;;;17.70;67.80;;;;;;9177375;19;20044;-64
2022/09/17 12:48:19;;;;;;;3.83;1.00;;;17.70;67.50;;;;;;9180956;19;20015;-62
2022/09/17 12:51:47;;;;;;;11.65;1.35;;;17.60;67.40;;;;;;9183486;19;20048;-61
2022/09/17 12:55:09;;;;;;;3.72;0.73;;;17.60;67.10;;;;;;9182105;19;20021;-65
2022/09/17 12:58:29;;;;;;;9.35;2.00;;;17.50;67.10;;;;;;9178757;19;20094;-64
2022/09/17 13:01:39;;;;;;;5.40;1.05;;;17.50;66.90;;;;;;9172951;19;20022;-63
2022/09/17 13:05:16;;;;;;;4.63;1.02;;;17.50;66.90;;;;;;9177283;19;20015;-65
2022/09/17 13:08:47;;;;;;;4.05;0.88;;;17.40;66.70;;;;;;9171601;19;20014;-62
2022/09/17 13:12:07;;;;;;;3.63;0.82;;;17.40;67.50;;;;;;9173717;19;20051;-64
2022/09/17 13:15:38;;;;;;;6.80;0.95;;;17.30;66.80;;;;;;9174702;19;20022;-63
2022/09/17 13:18:52;;;;;;;6.15;1.20;;;17.20;66.60;;;;;;9171244;19;20022;-63
2022/09/17 13:22:19;;;;;;;9.57;1.42;;;17.20;66.70;;;;;;9174370;19;20391;-62
2022/09/17 13:25:26;;;;;;;3.35;1.08;;;17.10;66.80;;;;;;9166972;19;20026;-62
2022/09/17 13:28:41;;;;;;;8.43;1.67;;;17.10;66.70;;;;;;9166454;19;20102;-62
2022/09/17 13:31:51;;;;;;;11.45;1.23;;;17.10;66.70;;;;;;9168476;19;20051;-63
2022/09/17 13:34:54;;;;;;;8.70;1.45;;;17.10;66.70;;;;;;9162725;19;20486;-63
2022/09/17 13:37:59;;;;;;;5.22;1.48;;;17.00;66.70;;;;;;9168952;19;20090;-63
2022/09/17 13:41:24;;;;;;;8.50;1.20;;;17.10;66.80;;;;;;9165657;19;20034;-63
2022/09/17 13:44:27;;;;;;;9.23;1.00;;;17.10;66.60;;;;;;9169184;19;20014;-61
2022/09/17 13:47:33;;;;;;;8.45;1.67;;;17.10;66.60;;;;;;9169082;19;20428;-65
2022/09/17 13:50:39;;;;;;;8.32;1.15;;;17.10;66.60;;;;;;9168070;19;20114;-65
2022/09/17 13:53:55;;;;;;;8.52;1.15;;;17.10;66.50;;;;;;9168753;19;20024;-63
2022/09/17 13:57:21;;;;;;;7.15;1.90;;;17.20;66.40;;;;;;9168551;19;20052;-63
2022/09/17 14:00:51;;;;;;;5.88;1.35;;;17.20;66.40;;;;;;9163619;19;20045;-63
2022/09/17 14:03:56;;;;;;;10.75;1.20;;;17.20;66.40;;;;;;9167932;19;20015;-63
2022/09/17 14:07:00;;;;;;;11.35;1.90;;;17.30;66.50;;;;;;9167337;19;20093;-62
2022/09/17 14:10:36;;;;;;;10.68;1.58;;;17.30;66.50;;;;;;9165888;19;20017;-62
2022/09/17 14:13:45;;;;;;;13.50;1.95;;;17.30;66.60;;;;;;9167865;19;20371;-62
2022/09/17 14:16:50;;;;;;;7.78;1.38;;;17.30;66.60;;;;;;9169553;19;20022;-64
2022/09/17 14:19:55;;;;;;;11.30;1.48;;;17.30;66.70;;;;;;9163862;19;20026;-65
2022/09/17 14:23:00;;;;;;;7.60;1.83;;;17.20;66.80;;;;;;9165804;19;20015;-64
2022/09/17 14:26:06;;;;;;;11.50;2.13;;;17.10;66.90;;;;;;9168260;19;20014;-65
2022/09/17 14:29:21;;;;;;;6.47;1.58;;;17.10;66.90;;;;;;9167838;19;20052;-63
2022/09/17 14:32:32;;;;;;;9.93;2.47;;;17.00;66.70;;;;;;9167170;19;20010;-64
2022/09/17 14:35:38;;;;;;;11.00;1.58;;;17.00;66.60;;;;;;9162177;19;20021;-63
2022/09/17 14:38:45;;;;;;;7.93;1.58;;;16.80;66.50;;;;;;9160234;19;20597;-60
2022/09/17 14:41:51;;;;;;;14.25;1.73;;;16.70;66.40;;;;;;9163440;19;20019;-66
2022/09/17 14:45:01;;;;;;;14.80;2.03;;;16.60;66.40;;;;;;9165523;19;20019;-64
2022/09/17 14:48:34;;;;;;;6.72;1.63;;;16.50;66.30;;;;;;9165062;19;20248;-65
2022/09/17 14:51:40;;;;;;;9.40;1.75;;;16.50;66.30;;;;;;9166014;19;20746;-63
2022/09/17 14:54:44;;;;;;;5.63;1.02;;;16.40;66.40;;;;;;9164176;19;20015;-63
2022/09/17 14:57:52;;;;;;;15.02;1.40;;;16.30;66.40;;;;;;9165078;19;20032;-64
2022/09/17 15:00:58;;;;;;;11.52;1.80;;;16.30;66.40;;;;;;9162906;19;20014;-61
2022/09/17 15:04:29;;;;;;;7.07;1.13;;;16.30;66.50;;;;;;9165605;19;20018;-63
2022/09/17 15:07:32;;;;;;;8.75;1.75;;;16.20;66.40;;;;;;9159947;19;20662;-63
2022/09/17 15:10:39;;;;;;;10.52;1.80;;;16.20;66.50;;;;;;9163915;19;20034;-64
2022/09/17 15:13:51;;;;;;;11.77;1.27;;;16.20;66.60;;;;;;9164619;19;20030;-63
2022/09/17 15:16:59;;;;;;;9.13;1.65;;;16.20;66.60;;;;;;9164378;19;20022;-65
2022/09/17 15:20:06;;;;;;;6.35;1.35;;;16.20;66.60;;;;;;9164153;19;20019;-63
2022/09/17 15:23:16;;;;;;;5.40;0.90;;;16.20;66.50;;;;;;9164145;19;20026;-62
2022/09/17 15:26:27;;;;;;;8.85;2.05;;;16.20;66.50;;;;;;9164273;19;20053;-64
2022/09/17 15:29:35;;;;;;;7.20;0.88;;;16.20;66.50;;;;;;9164045;19;20023;-61
2022/09/17 15:32:43;;;;;;;5.50;0.93;;;16.20;66.40;;;;;;9172705;19;20014;-61
2022/09/17 15:36:00;;;;;;;1.20;0.50;;;16.20;66.30;;;;;;9165961;19;20019;-67
2022/09/17 15:39:31;;;;;;;2.75;0.52;;;16.20;66.40;;;;;;9170749;19;20021;-70
2022/09/17 15:42:34;;;;;;;1.00;0.38;;;16.10;66.40;;;;;;9171498;19;20022;-68
2022/09/17 15:45:41;;;;;;;2.28;0.55;;;16.10;66.50;;;;;;9171867;19;20403;-69
2022/09/17 15:48:46;;;;;;;6.18;1.05;;;16.00;66.40;;;;;;9172231;19;20367;-69
2022/09/17 15:51:51;;;;;;;3.15;0.80;;;16.00;66.40;;;;;;9173038;19;20029;-68
2022/09/17 15:54:55;;;;;;;6.35;0.98;;;15.90;66.40;;;;;;9172854;19;20098;-70
2022/09/17 15:57:59;;;;;;;3.28;1.25;;;15.80;66.50;;;;;;9171831;19;20475;-67
2022/09/17 16:01:50;;;;;;;9.55;1.25;;;15.80;66.40;;;;;;9168456;19;20590;-68
2022/09/17 16:05:48;;;;;;;2.90;0.77;;;15.60;66.30;;;;;;9172338;19;20034;-68
2022/09/17 16:09:01;;;;;;;7.05;1.10;;;15.50;66.40;;;;;;9171031;19;20022;-68
2022/09/17 16:12:05;;;;;;;10.80;1.10;;;15.40;66.60;;;;;;9172504;19;20019;-68
2022/09/17 16:15:09;;;;;;;;;;;15.30;66.60;;;;;;9171618;19;20059;-67
2022/09/17 16:18:16;;;;;;;6.00;0.97;;;15.30;66.70;;;;;;9166533;19;20709;-68
2022/09/17 16:21:20;;;;;;;7.93;1.02;;;15.20;66.60;;;;;;9165473;19;20493;-67
2022/09/17 16:24:26;;;;;;;5.63;0.90;;;15.20;66.70;;;;;;9167565;19;20081;-65